Airfield :
LOGIN :

Register | Disclaimer

   EN    FR    IT 

 










Legend :    VFR   Marginal VFR   IFR   Intensive IFR   Very Intensive IFR
Visi :
Ceiling :
>= 8 km
>= 3000ft
5 to 8 km
1000 to 3000 ft
1500m to 5 km
500 to 1000 ft
800 to 1500m
200 to 500 ft
< 800m
< 200 ft
Symbols :   Thunderstorms  Fog  Heavy snow  Heavy precipitations  Wind > 20 kt
SIGMETs :     Misc.  Thunderstorms  Icing  Turbulence  Mountain Waves  Volcanic Ashes







- Airport Elevation : 1708 ft
- IATA code : SJJ


LQSA - Sarajevo

CURRENT METAR :
  • 161500Z VRB01KT CAVOK 09/M03 Q1030 NOSIG

EXPIRED METARs :
  • 161430Z VRB02KT CAVOK 08/M03 Q1030 NOSIG
  • 161400Z 31003KT 280V360 CAVOK 08/M04 Q1030 NOSIG
  • 161330Z 32004KT 260V020 CAVOK 07/M02 Q1030 NOSIG
  • 161300Z VRB02KT CAVOK 08/M02 Q1030 NOSIG
  • 161230Z 31003KT 270V360 CAVOK 07/M02 Q1031 NOSIG

TAF TAF LQSA
Valid from the 16 at 12:00 until the 17 at 12:00 UTC


161100Z 1612/1712 VRB02KT CAVOK TX08/1613Z TNM04/1705Z
BECMG 1618/1621 3000 BR
PROB40 1701/1708 0600 FZFG BKN002
No reported NOTAMs for that airfield.



MET'MAP, your aeronautical weather chart ! - Copyright ORBIFLY December 2007 - Disclaimer

ORBIFLY MET'MAP TEAM :

Programming & Development : Alexandra Zaïnal
Concept & Development : Baudouin d'Aumeries
Co-Development & Prog : Marc-Olivier Méhu
Technical & hardware support : Manuel Goepfert

Contact : metmap@orbifly.com




SOURCES & CREDITS :

   NOAA